createdAt,value
2019-04-28T00:19:30.847Z,98411.86
2019-04-28T00:22:28.271Z,98405.66
2019-04-28T00:27:51.617Z,98408.17
2019-04-28T00:36:15.021Z,98418.94
2019-04-28T00:38:45.254Z,98416.75
2019-04-28T00:41:34.842Z,98416.42
2019-04-28T00:44:05.093Z,98420.12
2019-04-28T00:46:36.597Z,98418.21
2019-04-28T00:49:45.049Z,98404.02
2019-04-28T00:52:34.858Z,98405.89
2019-04-28T00:55:06.009Z,98403.70
2019-04-28T00:57:55.285Z,98396.41
2019-04-28T01:03:42.094Z,98404.19
2019-04-28T01:06:14.086Z,98397.59
2019-04-28T01:09:06.264Z,98402.09
2019-04-28T01:11:37.977Z,98398.99
2019-04-28T01:14:27.535Z,98395.91
2019-04-28T01:17:16.732Z,98393.30
2019-04-28T01:23:10.367Z,98386.94
2019-04-28T01:25:52.049Z,98389.63
2019-04-28T01:37:35.124Z,98234.99
2019-04-28T01:40:22.811Z,98378.22
2019-04-28T01:43:04.297Z,98381.66
2019-04-28T01:45:45.454Z,98386.91
2019-04-28T01:48:26.887Z,98393.29
2019-04-28T01:50:57.207Z,98394.08
2019-04-28T01:53:27.482Z,98396.22
2019-04-28T01:56:20.430Z,98402.31
2019-04-28T01:59:10.227Z,98394.13
2019-04-28T02:02:00.291Z,98400.13
2019-04-28T02:04:49.973Z,98398.20
2019-04-28T02:07:20.635Z,98278.45
2019-04-28T02:10:10.374Z,98402.18
2019-04-28T02:12:40.578Z,98400.15
2019-04-28T02:15:11.226Z,98400.70
2019-04-28T02:18:02.813Z,98403.74
2019-04-28T02:20:46.515Z,98401.04
2019-04-28T02:23:30.362Z,98400.89
2019-04-28T02:26:01.204Z,98392.63
2019-04-28T02:28:50.523Z,98395.56
2019-04-28T02:31:43.485Z,98398.45
2019-04-28T02:34:13.773Z,98399.34
2019-04-28T02:37:03.440Z,98388.70
2019-04-28T02:39:33.760Z,98388.25
2019-04-28T02:42:04.172Z,98384.96
2019-04-28T02:44:53.454Z,98384.84
2019-04-28T02:47:42.797Z,98383.44
2019-04-28T02:53:51.313Z,98388.85
2019-04-28T02:56:43.724Z,98377.87
2019-04-28T02:59:31.978Z,98383.11
2019-04-28T03:02:21.627Z,98380.58
2019-04-28T03:05:11.788Z,98369.98
2019-04-28T03:07:42.169Z,98335.12
2019-04-28T03:10:12.840Z,98371.73
2019-04-28T03:12:54.701Z,98368.39
2019-04-28T03:15:36.440Z,98369.50
2019-04-28T03:18:17.951Z,98369.48
2019-04-28T03:21:03.617Z,98366.07
2019-04-28T03:23:41.393Z,98368.47
2019-04-28T03:29:42.305Z,98366.17
2019-04-28T03:32:58.346Z,98368.93
2019-04-28T03:35:43.982Z,98366.44
2019-04-28T03:38:53.168Z,98375.23
2019-04-28T03:41:23.600Z,98370.53
2019-04-28T03:43:53.916Z,98366.00
2019-04-28T03:49:43.470Z,98365.48
2019-04-28T03:52:33.043Z,98366.71
2019-04-28T03:55:03.870Z,98368.23
2019-04-28T03:57:34.164Z,98369.70
2019-04-28T04:00:05.310Z,98363.20
2019-04-28T04:02:37.157Z,98356.90
2019-04-28T04:05:26.365Z,98359.77
2019-04-28T04:08:15.945Z,98357.82
2019-04-28T04:11:05.046Z,98361.55
2019-04-28T04:14:13.263Z,98357.50
2019-04-28T04:17:21.398Z,98363.37
2019-04-28T04:20:12.434Z,98362.45
2019-04-28T04:23:01.783Z,98356.88
2019-04-28T04:28:42.069Z,98356.91
2019-04-28T04:31:32.108Z,98350.09
2019-04-28T04:34:03.744Z,98351.98
2019-04-28T04:36:53.007Z,98357.16
2019-04-28T04:39:34.117Z,98351.06
2019-04-28T04:44:50.134Z,98361.06
2019-04-28T04:47:40.728Z,98358.14
2019-04-28T04:50:31.306Z,98362.36
2019-04-28T04:53:23.789Z,98369.15
2019-04-28T04:56:14.895Z,98374.13
2019-04-28T04:59:04.187Z,98368.10
2019-04-28T05:01:56.635Z,98237.31
2019-04-28T05:04:47.280Z,98371.03
2019-04-28T05:07:36.844Z,98375.17
2019-04-28T05:10:07.424Z,98372.02
2019-04-28T05:12:56.951Z,98377.39
2019-04-28T05:15:27.256Z,98377.39
2019-04-28T05:18:19.967Z,98381.48
2019-04-28T05:21:10.588Z,98381.48
2019-04-28T05:24:20.089Z,98385.69
2019-04-28T05:27:09.947Z,98384.48
2019-04-28T05:29:40.595Z,98387.55
2019-04-28T05:32:42.426Z,98384.08
2019-04-28T05:35:21.989Z,98394.34
2019-04-28T05:37:52.860Z,98396.04
2019-04-28T05:40:23.421Z,98398.63
2019-04-28T05:43:12.735Z,98399.80
2019-04-28T05:46:07.189Z,98405.29
2019-04-28T05:48:56.367Z,98401.72
2019-04-28T05:51:47.168Z,98405.34
2019-04-28T05:54:44.341Z,98400.31
2019-04-28T05:57:35.835Z,98406.05
2019-04-28T06:00:43.985Z,98402.30
2019-04-28T06:06:11.079Z,98400.63
2019-04-28T06:09:20.335Z,98402.06
2019-04-28T06:11:54.380Z,98401.75
2019-04-28T06:14:23.409Z,98403.70
2019-04-28T06:16:54.025Z,98400.70
2019-04-28T06:19:24.517Z,98401.22
2019-04-28T06:21:54.798Z,98407.13
2019-04-28T06:27:34.987Z,98398.86
2019-04-28T06:30:24.886Z,98406.43
2019-04-28T06:33:07.221Z,98407.70
2019-04-28T06:35:27.203Z,98408.42
2019-04-28T06:38:16.733Z,98412.34
2019-04-28T06:41:00.391Z,98418.09
2019-04-28T06:43:30.722Z,98409.96
2019-04-28T06:46:20.064Z,98412.47
2019-04-28T06:48:50.370Z,98412.56
2019-04-28T06:51:26.068Z,98411.77
2019-04-28T06:53:58.835Z,98420.05
2019-04-28T06:56:48.772Z,98429.50
2019-04-28T06:59:19.145Z,98423.25
2019-04-28T07:01:49.482Z,98432.26
2019-04-28T07:04:43.923Z,98429.45
2019-04-28T07:07:33.189Z,98430.44
2019-04-28T07:10:05.455Z,98425.34
2019-04-28T07:12:48.190Z,98423.81
2019-04-28T07:15:29.924Z,98423.41
2019-04-28T07:18:11.541Z,98423.06
2019-04-28T07:21:03.541Z,98420.31
2019-04-28T07:23:53.203Z,98418.41
2019-04-28T07:27:02.815Z,98380.97
2019-04-28T07:30:00.009Z,98419.73
2019-04-28T07:32:30.399Z,98420.20
2019-04-28T07:35:00.718Z,98418.78
2019-04-28T07:37:50.017Z,98426.11
2019-04-28T07:40:20.261Z,98427.33
2019-04-28T07:43:09.819Z,98429.77
2019-04-28T07:45:51.488Z,98437.28
2019-04-28T07:48:21.925Z,98441.49
2019-04-28T07:51:21.746Z,98442.22
2019-04-28T07:54:04.784Z,98440.75
2019-04-28T07:56:33.774Z,98443.09
2019-04-28T07:59:04.411Z,98446.45
2019-04-28T08:04:40.433Z,98461.85
2019-04-28T08:07:11.570Z,98458.16
2019-04-28T08:09:42.301Z,98440.53
2019-04-28T08:12:32.907Z,98453.94
2019-04-28T08:15:22.324Z,98451.60
2019-04-28T08:17:52.598Z,98447.06
2019-04-28T08:20:22.941Z,98452.21
2019-04-28T08:22:53.201Z,98457.12
2019-04-28T08:25:25.112Z,98459.47
2019-04-28T08:27:55.541Z,98460.17
2019-04-28T08:30:25.849Z,98458.64
2019-04-28T08:33:14.984Z,98456.89
2019-04-28T08:36:04.459Z,98461.47
2019-04-28T08:38:54.112Z,98462.20
2019-04-28T08:41:43.392Z,98461.84
2019-04-28T08:44:37.492Z,98458.21
2019-04-28T08:47:07.847Z,98456.75
2019-04-28T08:49:57.412Z,98446.86
2019-04-28T08:52:46.701Z,98445.33
2019-04-28T08:55:36.411Z,98442.16
2019-04-28T09:01:17.820Z,98447.49
2019-04-28T09:04:15.575Z,98445.91
2019-04-28T09:06:44.708Z,98453.50
2019-04-28T09:12:11.912Z,98446.47
2019-04-28T09:14:42.271Z,98445.34
2019-04-28T09:17:31.578Z,98445.55
2019-04-28T09:20:01.837Z,98445.78
2019-04-28T09:26:07.914Z,98441.03
2019-04-28T09:28:57.607Z,98428.36
2019-04-28T09:31:27.905Z,98431.09
2019-04-28T09:33:58.313Z,98433.02
2019-04-28T09:36:28.560Z,98436.19
2019-04-28T09:38:59.252Z,98437.97
2019-04-28T09:41:34.251Z,98446.29
2019-04-28T09:44:16.128Z,98442.16
2019-04-28T09:47:06.875Z,98442.98
2019-04-28T09:49:38.357Z,98450.25
2019-04-28T09:52:10.291Z,98445.97
2019-04-28T09:55:01.017Z,98441.70
2019-04-28T09:57:54.752Z,98444.31
2019-04-28T10:04:10.952Z,98438.69
2019-04-28T10:07:02.813Z,98440.00
2019-04-28T10:09:36.191Z,98440.06
2019-04-28T10:12:26.904Z,98444.45
2019-04-28T10:14:54.178Z,98442.84
2019-04-28T10:17:25.181Z,98449.05
2019-04-28T10:20:32.844Z,98449.38
2019-04-28T10:23:10.942Z,98444.59
2019-04-28T10:25:41.961Z,98443.11
2019-04-28T10:28:12.787Z,98445.09
2019-04-28T10:31:25.660Z,98438.06
2019-04-28T10:34:35.265Z,98445.25
2019-04-28T10:37:07.299Z,98441.02
2019-04-28T10:39:51.215Z,98447.52
2019-04-28T10:45:48.048Z,98442.67
2019-04-28T10:48:40.683Z,98445.91
2019-04-28T10:51:39.445Z,98451.23
2019-04-28T10:54:09.807Z,98449.66
2019-04-28T10:56:46.084Z,98446.44
2019-04-28T11:02:45.129Z,98441.09
2019-04-28T11:05:36.738Z,98436.73
2019-04-28T11:08:28.273Z,98444.52
2019-04-28T11:11:38.891Z,98452.00
2019-04-28T11:14:11.072Z,98458.11
2019-04-28T11:16:42.339Z,98460.41
2019-04-28T11:19:14.187Z,98468.41
2019-04-28T11:22:03.883Z,98478.03
2019-04-28T11:24:34.217Z,98479.84
2019-04-28T11:27:25.860Z,98490.65
2019-04-28T11:29:56.247Z,98496.73
2019-04-28T11:32:26.641Z,98496.05
2019-04-28T11:35:23.636Z,98500.95
2019-04-28T11:38:15.695Z,98497.36
2019-04-28T11:40:46.163Z,98498.86
2019-04-28T11:43:35.445Z,98499.23
2019-04-28T11:48:57.199Z,98502.16
2019-04-28T11:51:29.935Z,98499.64
2019-04-28T11:56:54.056Z,98498.81
2019-04-28T11:59:45.880Z,98490.97
2019-04-28T12:02:16.283Z,98496.05
2019-04-28T12:04:51.591Z,98490.00
2019-04-28T12:07:23.798Z,98484.86
2019-04-28T12:10:40.201Z,98491.11
2019-04-28T12:13:37.841Z,98488.16
2019-04-28T12:16:27.682Z,98488.89
2019-04-28T12:19:19.818Z,98486.13
2019-04-28T12:25:01.325Z,98472.91
2019-04-28T12:28:09.709Z,98460.11
2019-04-28T12:30:40.026Z,98456.95
2019-04-28T12:33:31.548Z,98451.47
2019-04-28T12:36:28.088Z,98452.33
2019-04-28T12:39:17.791Z,98329.28
2019-04-28T12:42:00.895Z,98446.32
2019-04-28T12:44:42.682Z,98445.67
2019-04-28T12:50:33.331Z,98432.54
2019-04-28T12:53:04.581Z,98431.30
2019-04-28T12:55:38.768Z,98425.58
2019-04-28T12:58:31.406Z,98428.52
2019-04-28T13:01:23.543Z,98426.63
2019-04-28T13:07:34.303Z,98420.06
2019-04-28T13:10:05.066Z,98418.59
2019-04-28T13:12:44.806Z,98413.45
2019-04-28T13:18:33.470Z,98403.56
2019-04-28T13:21:03.797Z,98401.02
2019-04-28T13:23:54.969Z,98402.80
2019-04-28T13:26:25.235Z,98393.77
2019-04-28T13:31:46.668Z,98392.77
2019-04-28T13:34:18.916Z,98393.80
2019-04-28T13:36:53.151Z,98394.16
2019-04-28T13:39:44.734Z,98399.52
2019-04-28T13:42:57.788Z,98398.31
2019-04-28T13:46:07.121Z,98401.39
2019-04-28T13:48:57.780Z,98399.02
2019-04-28T13:51:28.085Z,98394.05
2019-04-28T13:57:15.772Z,98398.70
2019-04-28T14:00:08.114Z,98395.58
2019-04-28T14:06:12.630Z,98381.73
2019-04-28T14:09:13.263Z,98386.80
2019-04-28T14:11:52.845Z,98392.30
2019-04-28T14:17:25.851Z,98381.45
2019-04-28T14:22:43.501Z,98369.28
2019-04-28T14:28:26.448Z,98363.66
2019-04-28T14:30:59.524Z,98360.58
2019-04-28T14:33:48.845Z,98365.06
2019-04-28T14:36:19.246Z,98360.33
2019-04-28T14:39:09.844Z,98351.18
2019-04-28T14:41:51.956Z,98345.86
2019-04-28T14:44:22.831Z,98350.34
2019-04-28T14:46:53.758Z,98345.95
2019-04-28T14:49:24.204Z,98337.13
2019-04-28T14:51:54.470Z,98335.30
2019-04-28T14:54:29.477Z,98331.11
2019-04-28T14:57:02.011Z,98330.59
2019-04-28T14:59:34.103Z,98334.47
2019-04-28T15:02:24.589Z,98329.70
2019-04-28T15:05:26.482Z,98321.77
2019-04-28T15:08:15.617Z,98201.66
2019-04-28T15:11:11.694Z,98332.00
2019-04-28T15:13:41.933Z,98330.77
2019-04-28T15:19:33.946Z,98322.97
2019-04-28T15:22:05.175Z,98325.81
2019-04-28T15:24:35.829Z,98331.61
2019-04-28T15:27:25.804Z,98333.24
2019-04-28T15:30:20.287Z,98333.55
2019-04-28T15:32:52.080Z,98333.94
2019-04-28T15:35:41.435Z,98336.56
2019-04-28T15:38:11.762Z,98341.60
2019-04-28T15:40:42.065Z,98342.27
2019-04-28T15:43:34.506Z,98337.67
2019-04-28T15:46:03.979Z,98338.02
2019-04-28T15:48:53.640Z,98338.92
2019-04-28T15:51:23.961Z,98336.68
2019-04-28T15:54:13.547Z,98330.08
2019-04-28T15:56:49.845Z,98338.13
2019-04-28T15:59:22.387Z,98332.23
2019-04-28T16:05:23.424Z,98345.98
2019-04-28T16:08:16.941Z,98342.62
2019-04-28T16:11:08.580Z,98342.39
2019-04-28T16:13:57.869Z,98343.04
2019-04-28T16:16:39.777Z,98338.58
2019-04-28T16:19:22.226Z,98348.82
2019-04-28T16:22:03.070Z,98344.92
2019-04-28T16:27:50.019Z,98334.89
2019-04-28T16:30:35.221Z,98332.52
2019-04-28T16:33:24.452Z,98334.44
2019-04-28T16:35:55.857Z,98330.66
2019-04-28T16:41:43.310Z,98332.21
2019-04-28T16:44:19.748Z,98193.34
2019-04-28T16:50:03.250Z,98343.06
2019-04-28T16:53:09.375Z,98343.27
2019-04-28T16:56:14.616Z,98346.53
2019-04-28T16:59:08.845Z,98353.95
2019-04-28T17:05:02.511Z,98354.91
2019-04-28T17:08:04.294Z,98355.10
2019-04-28T17:10:27.351Z,98351.47
2019-04-28T17:13:16.826Z,98353.55
2019-04-28T17:15:59.158Z,98352.78
2019-04-28T17:18:49.639Z,98353.55
2019-04-28T17:21:41.776Z,98362.25
2019-04-28T17:24:51.677Z,98359.81
2019-04-28T17:27:22.224Z,98359.91
2019-04-28T17:30:12.779Z,98365.45
2019-04-28T17:32:43.697Z,98363.41
2019-04-28T17:35:34.035Z,98369.18
2019-04-28T17:44:36.551Z,98379.08
2019-04-28T17:47:06.961Z,98378.67
2019-04-28T17:49:38.559Z,98381.11
2019-04-28T17:52:32.803Z,98384.86
2019-04-28T17:55:03.416Z,98387.48
2019-04-28T17:57:39.830Z,98391.97
2019-04-28T18:00:34.218Z,98402.97
2019-04-28T18:07:00.219Z,98360.02
2019-04-28T18:09:33.875Z,98416.36
2019-04-28T18:12:23.797Z,98415.87
2019-04-28T18:20:36.744Z,98423.50
2019-04-28T18:23:48.845Z,98430.43
2019-04-28T18:26:19.797Z,98435.56
2019-04-28T18:28:50.370Z,98442.25
2019-04-28T18:31:59.469Z,98446.76
2019-04-28T18:34:51.343Z,98441.41
2019-04-28T18:38:04.495Z,98443.75
2019-04-28T18:41:07.930Z,98447.02
2019-04-28T18:43:50.191Z,98450.56
2019-04-28T18:46:32.868Z,98365.23
2019-04-28T18:49:18.164Z,98444.97
2019-04-28T18:52:05.604Z,98453.64
2019-04-28T18:58:01.240Z,98464.36
2019-04-28T19:06:47.921Z,98477.27
2019-04-28T19:12:53.992Z,98491.14
2019-04-28T19:15:58.751Z,98495.21
2019-04-28T19:22:01.354Z,98509.50
2019-04-28T19:24:51.324Z,98511.95
2019-04-28T19:27:59.624Z,98512.11
2019-04-28T19:30:53.611Z,98508.50
2019-04-28T19:33:36.687Z,98513.31
2019-04-28T19:36:26.384Z,98514.16
2019-04-28T19:39:03.528Z,98517.22
2019-04-28T19:41:51.170Z,98522.28
2019-04-28T19:44:25.650Z,98518.77
2019-04-28T19:46:58.467Z,98520.91
2019-04-28T19:49:49.515Z,98524.53
2019-04-28T19:52:42.548Z,98520.31
2019-04-28T19:55:35.513Z,98518.55
2019-04-28T19:58:44.699Z,98511.40
2019-04-28T20:04:32.144Z,98516.70
2019-04-28T20:10:19.349Z,98520.14
2019-04-28T20:12:51.094Z,98512.21
2019-04-28T20:19:24.584Z,98529.64
2019-04-28T20:22:13.760Z,98532.19
2019-04-28T20:25:29.977Z,98543.16
2019-04-28T20:28:00.227Z,98538.76
2019-04-28T20:33:22.630Z,98538.05
2019-04-28T20:42:22.092Z,98543.55
2019-04-28T20:45:11.726Z,98542.30
2019-04-28T20:48:01.798Z,98542.85
2019-04-28T20:50:52.744Z,98544.42
2019-04-28T20:53:42.149Z,98543.70
2019-04-28T20:56:32.351Z,98542.72
2019-04-28T20:59:21.542Z,98551.02
2019-04-28T21:02:32.735Z,98554.66
2019-04-28T21:05:25.158Z,98556.48
2019-04-28T21:08:14.734Z,98555.50
2019-04-28T21:11:25.229Z,98549.98
2019-04-28T21:13:56.011Z,98551.73
2019-04-28T21:16:45.775Z,98556.22
2019-04-28T21:19:33.178Z,98405.45
2019-04-28T21:22:05.791Z,98553.84
2019-04-28T21:24:55.272Z,98560.33
2019-04-28T21:27:27.696Z,98565.03
2019-04-28T21:30:18.626Z,98569.70
2019-04-28T21:36:07.716Z,98573.75
2019-04-28T21:38:38.551Z,98576.09
2019-04-28T21:47:43.440Z,98579.91
2019-04-28T21:50:33.204Z,98577.69
2019-04-28T21:53:22.873Z,98588.31
2019-04-28T21:56:12.254Z,98589.17
2019-04-28T21:59:01.998Z,98588.26
2019-04-28T22:01:32.887Z,98584.08
2019-04-28T22:04:23.153Z,98580.45
2019-04-28T22:09:46.943Z,98580.48
2019-04-28T22:12:17.770Z,98590.81
2019-04-28T22:15:13.145Z,98585.03
2019-04-28T22:17:44.631Z,98590.81
2019-04-28T22:20:15.346Z,98591.59
2019-04-28T22:22:45.809Z,98591.71
2019-04-28T22:28:15.498Z,98589.66
2019-04-28T22:30:46.730Z,98588.28
2019-04-28T22:33:41.217Z,98594.73
2019-04-28T22:36:31.268Z,98593.14
2019-04-28T22:39:02.983Z,98595.93
2019-04-28T22:41:53.925Z,98593.50
2019-04-28T22:44:34.019Z,98591.62
2019-04-28T22:47:04.364Z,98596.48
2019-04-28T22:50:12.618Z,98598.78
2019-04-28T22:53:01.904Z,98601.53
2019-04-28T22:58:55.582Z,98597.04
2019-04-28T23:02:06.879Z,98601.45
2019-04-28T23:04:57.372Z,98602.77
2019-04-28T23:07:47.094Z,98607.92
2019-04-28T23:10:19.187Z,98606.73
2019-04-28T23:12:50.355Z,98604.55
2019-04-28T23:15:41.179Z,98610.39
2019-04-28T23:18:30.856Z,98607.39
2019-04-28T23:21:39.332Z,98609.30
2019-04-28T23:24:30.243Z,98608.89
2019-04-28T23:27:19.793Z,98600.60
2019-04-28T23:30:01.876Z,98603.84
2019-04-28T23:32:42.429Z,98602.66
2019-04-28T23:35:12.895Z,98606.44
2019-04-28T23:38:02.276Z,98603.81
2019-04-28T23:40:32.881Z,98608.41
2019-04-28T23:46:19.511Z,98604.34
2019-04-28T23:49:31.556Z,98603.06
2019-04-28T23:52:18.929Z,98613.37
2019-04-28T23:54:51.128Z,98607.12
2019-04-28T23:58:00.803Z,98607.56
